sensor_id;sensor_type;location;lat;lon;timestamp;P1;durP1;ratioP1;P2;durP2;ratioP2
84672;SDS011;74899;42.256;23.284;2024-03-02T00:00:03;5.25;;;4.25;;
84672;SDS011;74899;42.256;23.284;2024-03-02T00:02:40;11.57;;;5.82;;
84672;SDS011;74899;42.256;23.284;2024-03-02T00:05:13;5.07;;;4.35;;
84672;SDS011;74899;42.256;23.284;2024-03-02T00:07:41;10.02;;;6.40;;
84672;SDS011;74899;42.256;23.284;2024-03-02T00:10:10;7.72;;;5.38;;
84672;SDS011;74899;42.256;23.284;2024-03-02T00:12:40;5.72;;;5.10;;
84672;SDS011;74899;42.256;23.284;2024-03-02T00:15:16;9.52;;;7.45;;
84672;SDS011;74899;42.256;23.284;2024-03-02T00:20:24;8.00;;;6.00;;
84672;SDS011;74899;42.256;23.284;2024-03-02T00:23:07;5.93;;;5.30;;
84672;SDS011;74899;42.256;23.284;2024-03-02T00:25:42;6.22;;;4.60;;
84672;SDS011;74899;42.256;23.284;2024-03-02T00:28:22;6.32;;;4.70;;
84672;SDS011;74899;42.256;23.284;2024-03-02T00:31:04;5.72;;;4.50;;
84672;SDS011;74899;42.256;23.284;2024-03-02T00:33:32;11.75;;;7.38;;
84672;SDS011;74899;42.256;23.284;2024-03-02T00:36:00;10.48;;;4.72;;
84672;SDS011;74899;42.256;23.284;2024-03-02T00:38:32;5.55;;;4.50;;
84672;SDS011;74899;42.256;23.284;2024-03-02T00:41:00;10.57;;;3.83;;
84672;SDS011;74899;42.256;23.284;2024-03-02T00:43:47;4.68;;;4.28;;
84672;SDS011;74899;42.256;23.284;2024-03-02T00:46:19;6.85;;;4.43;;
84672;SDS011;74899;42.256;23.284;2024-03-02T00:48:51;6.57;;;5.07;;
84672;SDS011;74899;42.256;23.284;2024-03-02T00:51:21;7.05;;;4.85;;
84672;SDS011;74899;42.256;23.284;2024-03-02T00:53:48;11.50;;;7.20;;
84672;SDS011;74899;42.256;23.284;2024-03-02T00:56:16;9.18;;;5.47;;
84672;SDS011;74899;42.256;23.284;2024-03-02T00:58:43;5.68;;;4.38;;
84672;SDS011;74899;42.256;23.284;2024-03-02T01:01:09;4.10;;;3.78;;
84672;SDS011;74899;42.256;23.284;2024-03-02T01:03:34;6.25;;;4.50;;
84672;SDS011;74899;42.256;23.284;2024-03-02T01:06:00;5.38;;;4.70;;
84672;SDS011;74899;42.256;23.284;2024-03-02T01:08:27;5.63;;;4.68;;
84672;SDS011;74899;42.256;23.284;2024-03-02T01:10:53;7.63;;;4.45;;
84672;SDS011;74899;42.256;23.284;2024-03-02T01:13:21;5.22;;;4.45;;
84672;SDS011;74899;42.256;23.284;2024-03-02T01:15:47;5.25;;;4.35;;
84672;SDS011;74899;42.256;23.284;2024-03-02T01:18:13;5.78;;;5.05;;
84672;SDS011;74899;42.256;23.284;2024-03-02T01:20:42;5.90;;;4.72;;
84672;SDS011;74899;42.256;23.284;2024-03-02T01:23:07;6.82;;;4.30;;
84672;SDS011;74899;42.256;23.284;2024-03-02T01:25:33;8.75;;;5.10;;
84672;SDS011;74899;42.256;23.284;2024-03-02T01:27:59;8.57;;;5.00;;
84672;SDS011;74899;42.256;23.284;2024-03-02T01:30:24;4.90;;;4.50;;
84672;SDS011;74899;42.256;23.284;2024-03-02T01:32:50;6.05;;;4.35;;
84672;SDS011;74899;42.256;23.284;2024-03-02T01:35:17;5.35;;;4.45;;
84672;SDS011;74899;42.256;23.284;2024-03-02T01:37:43;6.03;;;4.43;;
84672;SDS011;74899;42.256;23.284;2024-03-02T01:40:09;5.85;;;5.25;;
84672;SDS011;74899;42.256;23.284;2024-03-02T01:42:36;10.88;;;7.07;;
84672;SDS011;74899;42.256;23.284;2024-03-02T01:45:06;12.00;;;6.55;;
84672;SDS011;74899;42.256;23.284;2024-03-02T01:47:33;8.57;;;5.85;;
84672;SDS011;74899;42.256;23.284;2024-03-02T01:49:59;4.68;;;4.28;;
84672;SDS011;74899;42.256;23.284;2024-03-02T01:52:24;7.05;;;5.03;;
84672;SDS011;74899;42.256;23.284;2024-03-02T01:54:50;5.32;;;4.72;;
84672;SDS011;74899;42.256;23.284;2024-03-02T01:57:19;5.47;;;4.97;;
84672;SDS011;74899;42.256;23.284;2024-03-02T01:59:49;6.70;;;6.00;;
84672;SDS011;74899;42.256;23.284;2024-03-02T02:02:16;6.65;;;5.30;;
84672;SDS011;74899;42.256;23.284;2024-03-02T02:04:42;6.05;;;5.40;;
84672;SDS011;74899;42.256;23.284;2024-03-02T02:07:08;8.40;;;5.20;;
84672;SDS011;74899;42.256;23.284;2024-03-02T02:09:35;5.38;;;4.38;;
84672;SDS011;74899;42.256;23.284;2024-03-02T02:12:00;5.40;;;4.85;;
84672;SDS011;74899;42.256;23.284;2024-03-02T02:14:30;6.47;;;3.83;;
84672;SDS011;74899;42.256;23.284;2024-03-02T02:16:56;5.03;;;4.32;;
84672;SDS011;74899;42.256;23.284;2024-03-02T02:19:22;4.65;;;4.20;;
84672;SDS011;74899;42.256;23.284;2024-03-02T02:21:48;6.43;;;4.65;;
84672;SDS011;74899;42.256;23.284;2024-03-02T02:24:13;7.20;;;4.55;;
84672;SDS011;74899;42.256;23.284;2024-03-02T02:26:39;5.22;;;4.72;;
84672;SDS011;74899;42.256;23.284;2024-03-02T02:29:06;5.85;;;5.07;;
84672;SDS011;74899;42.256;23.284;2024-03-02T02:31:39;7.63;;;6.07;;
84672;SDS011;74899;42.256;23.284;2024-03-02T02:34:07;7.97;;;4.95;;
84672;SDS011;74899;42.256;23.284;2024-03-02T02:36:34;8.60;;;5.82;;
84672;SDS011;74899;42.256;23.284;2024-03-02T02:39:05;8.85;;;6.75;;
84672;SDS011;74899;42.256;23.284;2024-03-02T02:41:33;7.75;;;5.75;;
84672;SDS011;74899;42.256;23.284;2024-03-02T02:43:58;10.35;;;6.72;;
84672;SDS011;74899;42.256;23.284;2024-03-02T02:46:24;7.40;;;6.60;;
84672;SDS011;74899;42.256;23.284;2024-03-02T02:48:50;13.38;;;8.13;;
84672;SDS011;74899;42.256;23.284;2024-03-02T02:51:18;8.27;;;6.03;;
84672;SDS011;74899;42.256;23.284;2024-03-02T02:53:44;14.05;;;7.20;;
84672;SDS011;74899;42.256;23.284;2024-03-02T02:56:09;15.75;;;7.38;;
84672;SDS011;74899;42.256;23.284;2024-03-02T02:58:35;16.02;;;6.85;;
84672;SDS011;74899;42.256;23.284;2024-03-02T03:01:01;11.05;;;7.63;;
84672;SDS011;74899;42.256;23.284;2024-03-02T03:03:29;11.02;;;7.13;;
84672;SDS011;74899;42.256;23.284;2024-03-02T03:05:55;12.20;;;8.13;;
84672;SDS011;74899;42.256;23.284;2024-03-02T03:08:20;15.63;;;9.10;;
84672;SDS011;74899;42.256;23.284;2024-03-02T03:10:48;9.70;;;6.32;;
84672;SDS011;74899;42.256;23.284;2024-03-02T03:13:15;11.10;;;6.25;;
84672;SDS011;74899;42.256;23.284;2024-03-02T03:15:42;6.80;;;5.22;;
84672;SDS011;74899;42.256;23.284;2024-03-02T03:18:08;8.38;;;5.40;;
84672;SDS011;74899;42.256;23.284;2024-03-02T03:20:35;7.30;;;5.05;;
84672;SDS011;74899;42.256;23.284;2024-03-02T03:23:01;5.40;;;4.90;;
84672;SDS011;74899;42.256;23.284;2024-03-02T03:25:29;7.18;;;5.78;;
84672;SDS011;74899;42.256;23.284;2024-03-02T03:27:54;7.82;;;5.13;;
84672;SDS011;74899;42.256;23.284;2024-03-02T03:30:20;7.53;;;6.07;;
84672;SDS011;74899;42.256;23.284;2024-03-02T03:32:46;10.40;;;6.35;;
84672;SDS011;74899;42.256;23.284;2024-03-02T03:35:13;9.93;;;6.75;;
84672;SDS011;74899;42.256;23.284;2024-03-02T03:37:40;15.32;;;7.05;;
84672;SDS011;74899;42.256;23.284;2024-03-02T03:40:07;9.55;;;6.15;;
84672;SDS011;74899;42.256;23.284;2024-03-02T03:42:36;8.15;;;5.72;;
84672;SDS011;74899;42.256;23.284;2024-03-02T03:45:04;8.65;;;5.90;;
84672;SDS011;74899;42.256;23.284;2024-03-02T03:47:32;9.70;;;6.18;;
84672;SDS011;74899;42.256;23.284;2024-03-02T03:49:57;10.77;;;5.63;;
84672;SDS011;74899;42.256;23.284;2024-03-02T03:52:23;7.70;;;5.45;;
84672;SDS011;74899;42.256;23.284;2024-03-02T03:54:52;6.18;;;5.50;;
84672;SDS011;74899;42.256;23.284;2024-03-02T03:57:18;6.72;;;5.95;;
84672;SDS011;74899;42.256;23.284;2024-03-02T03:59:44;9.85;;;6.53;;
84672;SDS011;74899;42.256;23.284;2024-03-02T04:02:09;7.85;;;6.05;;
84672;SDS011;74899;42.256;23.284;2024-03-02T04:04:36;9.23;;;6.97;;
84672;SDS011;74899;42.256;23.284;2024-03-02T04:07:03;7.93;;;6.10;;
84672;SDS011;74899;42.256;23.284;2024-03-02T04:09:29;8.80;;;6.80;;
84672;SDS011;74899;42.256;23.284;2024-03-02T04:11:55;12.88;;;8.75;;
84672;SDS011;74899;42.256;23.284;2024-03-02T04:14:21;18.65;;;9.93;;
84672;SDS011;74899;42.256;23.284;2024-03-02T04:16:47;18.67;;;9.85;;
84672;SDS011;74899;42.256;23.284;2024-03-02T04:19:12;13.73;;;8.35;;
84672;SDS011;74899;42.256;23.284;2024-03-02T04:21:39;43.75;;;16.80;;
84672;SDS011;74899;42.256;23.284;2024-03-02T04:24:05;34.75;;;15.18;;
84672;SDS011;74899;42.256;23.284;2024-03-02T04:26:32;60.05;;;21.60;;
84672;SDS011;74899;42.256;23.284;2024-03-02T04:28:57;34.80;;;16.17;;
84672;SDS011;74899;42.256;23.284;2024-03-02T04:31:23;35.08;;;15.63;;
84672;SDS011;74899;42.256;23.284;2024-03-02T04:33:48;50.10;;;19.95;;
84672;SDS011;74899;42.256;23.284;2024-03-02T04:36:14;62.70;;;25.50;;
84672;SDS011;74899;42.256;23.284;2024-03-02T04:38:42;38.53;;;17.70;;
84672;SDS011;74899;42.256;23.284;2024-03-02T04:41:08;16.90;;;8.65;;
84672;SDS011;74899;42.256;23.284;2024-03-02T04:43:34;22.33;;;11.30;;
84672;SDS011;74899;42.256;23.284;2024-03-02T04:46:01;22.17;;;12.43;;
84672;SDS011;74899;42.256;23.284;2024-03-02T04:48:27;14.05;;;6.75;;
84672;SDS011;74899;42.256;23.284;2024-03-02T04:50:54;8.15;;;6.97;;
84672;SDS011;74899;42.256;23.284;2024-03-02T04:53:20;10.10;;;6.45;;
84672;SDS011;74899;42.256;23.284;2024-03-02T04:55:45;10.25;;;7.13;;
84672;SDS011;74899;42.256;23.284;2024-03-02T04:58:31;10.55;;;6.53;;
84672;SDS011;74899;42.256;23.284;2024-03-02T05:00:57;9.30;;;7.28;;
84672;SDS011;74899;42.256;23.284;2024-03-02T05:03:23;13.52;;;7.93;;
84672;SDS011;74899;42.256;23.284;2024-03-02T05:05:49;11.70;;;7.97;;
84672;SDS011;74899;42.256;23.284;2024-03-02T05:08:16;14.05;;;8.93;;
84672;SDS011;74899;42.256;23.284;2024-03-02T05:10:42;24.45;;;13.55;;
84672;SDS011;74899;42.256;23.284;2024-03-02T05:13:07;15.80;;;9.85;;
84672;SDS011;74899;42.256;23.284;2024-03-02T05:15:34;12.23;;;8.02;;
84672;SDS011;74899;42.256;23.284;2024-03-02T05:18:01;15.55;;;9.75;;
84672;SDS011;74899;42.256;23.284;2024-03-02T05:20:30;11.15;;;7.90;;
84672;SDS011;74899;42.256;23.284;2024-03-02T05:22:56;11.23;;;7.57;;
84672;SDS011;74899;42.256;23.284;2024-03-02T05:25:21;12.40;;;7.18;;
84672;SDS011;74899;42.256;23.284;2024-03-02T05:27:47;9.43;;;6.35;;
84672;SDS011;74899;42.256;23.284;2024-03-02T05:30:13;6.57;;;5.07;;
84672;SDS011;74899;42.256;23.284;2024-03-02T05:32:40;7.50;;;5.07;;
84672;SDS011;74899;42.256;23.284;2024-03-02T05:35:07;9.23;;;6.13;;
84672;SDS011;74899;42.256;23.284;2024-03-02T05:37:35;5.55;;;4.95;;
84672;SDS011;74899;42.256;23.284;2024-03-02T05:40:01;5.13;;;4.55;;
84672;SDS011;74899;42.256;23.284;2024-03-02T05:42:28;10.85;;;6.53;;
84672;SDS011;74899;42.256;23.284;2024-03-02T05:44:54;9.07;;;8.18;;
84672;SDS011;74899;42.256;23.284;2024-03-02T05:47:19;10.00;;;6.95;;
84672;SDS011;74899;42.256;23.284;2024-03-02T05:49:45;8.23;;;5.80;;
84672;SDS011;74899;42.256;23.284;2024-03-02T05:52:11;9.07;;;7.13;;
84672;SDS011;74899;42.256;23.284;2024-03-02T05:54:37;9.82;;;8.15;;
84672;SDS011;74899;42.256;23.284;2024-03-02T05:57:04;6.90;;;6.10;;
84672;SDS011;74899;42.256;23.284;2024-03-02T05:59:50;8.93;;;5.70;;
84672;SDS011;74899;42.256;23.284;2024-03-02T06:02:15;7.03;;;6.07;;
84672;SDS011;74899;42.256;23.284;2024-03-02T06:04:41;8.90;;;7.00;;
84672;SDS011;74899;42.256;23.284;2024-03-02T06:07:07;14.68;;;10.00;;
84672;SDS011;74899;42.256;23.284;2024-03-02T06:09:34;17.80;;;10.40;;
84672;SDS011;74899;42.256;23.284;2024-03-02T06:11:59;11.07;;;7.45;;
84672;SDS011;74899;42.256;23.284;2024-03-02T06:14:25;9.77;;;6.68;;
84672;SDS011;74899;42.256;23.284;2024-03-02T06:16:51;15.00;;;10.20;;
84672;SDS011;74899;42.256;23.284;2024-03-02T06:19:18;66.18;;;30.65;;
84672;SDS011;74899;42.256;23.284;2024-03-02T06:21:43;14.00;;;10.00;;
84672;SDS011;74899;42.256;23.284;2024-03-02T06:24:09;9.43;;;7.80;;
84672;SDS011;74899;42.256;23.284;2024-03-02T06:26:35;20.77;;;15.45;;
84672;SDS011;74899;42.256;23.284;2024-03-02T06:29:00;14.70;;;7.65;;
84672;SDS011;74899;42.256;23.284;2024-03-02T06:31:28;16.98;;;8.27;;
84672;SDS011;74899;42.256;23.284;2024-03-02T06:33:53;22.95;;;7.70;;
84672;SDS011;74899;42.256;23.284;2024-03-02T06:36:19;15.95;;;8.13;;
84672;SDS011;74899;42.256;23.284;2024-03-02T06:38:45;18.73;;;9.77;;
84672;SDS011;74899;42.256;23.284;2024-03-02T06:41:11;22.73;;;10.88;;
84672;SDS011;74899;42.256;23.284;2024-03-02T06:43:36;19.10;;;10.57;;
84672;SDS011;74899;42.256;23.284;2024-03-02T06:46:04;11.70;;;7.50;;
84672;SDS011;74899;42.256;23.284;2024-03-02T06:48:34;13.23;;;6.20;;
84672;SDS011;74899;42.256;23.284;2024-03-02T06:51:00;9.38;;;7.43;;
84672;SDS011;74899;42.256;23.284;2024-03-02T06:53:26;11.85;;;8.85;;
84672;SDS011;74899;42.256;23.284;2024-03-02T06:55:52;9.20;;;5.75;;
84672;SDS011;74899;42.256;23.284;2024-03-02T06:58:18;7.75;;;6.95;;
84672;SDS011;74899;42.256;23.284;2024-03-02T07:00:43;43.38;;;17.20;;
84672;SDS011;74899;42.256;23.284;2024-03-02T07:03:09;22.10;;;11.73;;
84672;SDS011;74899;42.256;23.284;2024-03-02T07:05:35;18.75;;;10.90;;
84672;SDS011;74899;42.256;23.284;2024-03-02T07:08:01;12.25;;;7.55;;
84672;SDS011;74899;42.256;23.284;2024-03-02T07:10:30;13.88;;;9.20;;
84672;SDS011;74899;42.256;23.284;2024-03-02T07:12:56;29.70;;;14.68;;
84672;SDS011;74899;42.256;23.284;2024-03-02T07:15:21;18.52;;;11.30;;
84672;SDS011;74899;42.256;23.284;2024-03-02T07:17:53;14.25;;;9.23;;
84672;SDS011;74899;42.256;23.284;2024-03-02T07:20:18;13.13;;;9.30;;
84672;SDS011;74899;42.256;23.284;2024-03-02T07:22:44;15.13;;;9.38;;
84672;SDS011;74899;42.256;23.284;2024-03-02T07:25:10;28.23;;;15.10;;
84672;SDS011;74899;42.256;23.284;2024-03-02T07:27:36;20.48;;;11.43;;
84672;SDS011;74899;42.256;23.284;2024-03-02T07:30:03;12.18;;;9.15;;
84672;SDS011;74899;42.256;23.284;2024-03-02T07:32:30;6.95;;;6.35;;
84672;SDS011;74899;42.256;23.284;2024-03-02T07:34:55;5.80;;;5.03;;
84672;SDS011;74899;42.256;23.284;2024-03-02T07:37:22;8.05;;;5.50;;
84672;SDS011;74899;42.256;23.284;2024-03-02T07:39:48;11.52;;;5.63;;
84672;SDS011;74899;42.256;23.284;2024-03-02T07:42:14;6.13;;;5.18;;
84672;SDS011;74899;42.256;23.284;2024-03-02T07:44:43;4.43;;;4.03;;
84672;SDS011;74899;42.256;23.284;2024-03-02T07:47:11;5.15;;;4.43;;
84672;SDS011;74899;42.256;23.284;2024-03-02T07:49:36;3.22;;;3.05;;
84672;SDS011;74899;42.256;23.284;2024-03-02T07:52:03;4.90;;;4.47;;
84672;SDS011;74899;42.256;23.284;2024-03-02T07:54:29;4.32;;;3.92;;
84672;SDS011;74899;42.256;23.284;2024-03-02T07:56:55;5.70;;;5.20;;
84672;SDS011;74899;42.256;23.284;2024-03-02T07:59:23;5.35;;;4.47;;
84672;SDS011;74899;42.256;23.284;2024-03-02T08:01:50;6.78;;;5.93;;
84672;SDS011;74899;42.256;23.284;2024-03-02T08:04:17;7.35;;;6.50;;
84672;SDS011;74899;42.256;23.284;2024-03-02T08:06:42;9.77;;;8.25;;
84672;SDS011;74899;42.256;23.284;2024-03-02T08:09:08;10.10;;;7.93;;
84672;SDS011;74899;42.256;23.284;2024-03-02T08:11:36;8.95;;;6.57;;
84672;SDS011;74899;42.256;23.284;2024-03-02T08:14:04;5.82;;;5.22;;
84672;SDS011;74899;42.256;23.284;2024-03-02T08:16:34;7.53;;;6.50;;
84672;SDS011;74899;42.256;23.284;2024-03-02T08:19:00;7.25;;;5.63;;
84672;SDS011;74899;42.256;23.284;2024-03-02T08:21:26;5.20;;;4.80;;
84672;SDS011;74899;42.256;23.284;2024-03-02T08:23:56;5.47;;;4.97;;
84672;SDS011;74899;42.256;23.284;2024-03-02T08:26:23;7.40;;;5.38;;
84672;SDS011;74899;42.256;23.284;2024-03-02T08:28:49;4.53;;;4.18;;
84672;SDS011;74899;42.256;23.284;2024-03-02T08:31:15;3.67;;;3.38;;
84672;SDS011;74899;42.256;23.284;2024-03-02T08:33:41;4.15;;;3.85;;
84672;SDS011;74899;42.256;23.284;2024-03-02T08:36:07;4.15;;;3.85;;
84672;SDS011;74899;42.256;23.284;2024-03-02T08:38:34;5.47;;;5.07;;
84672;SDS011;74899;42.256;23.284;2024-03-02T08:41:00;5.85;;;5.32;;
84672;SDS011;74899;42.256;23.284;2024-03-02T08:43:26;6.68;;;6.18;;
84672;SDS011;74899;42.256;23.284;2024-03-02T08:45:52;6.18;;;5.05;;
84672;SDS011;74899;42.256;23.284;2024-03-02T08:48:18;8.10;;;6.03;;
84672;SDS011;74899;42.256;23.284;2024-03-02T08:50:45;5.63;;;5.15;;
84672;SDS011;74899;42.256;23.284;2024-03-02T08:53:11;6.63;;;5.97;;
84672;SDS011;74899;42.256;23.284;2024-03-02T08:55:38;5.03;;;4.63;;
84672;SDS011;74899;42.256;23.284;2024-03-02T08:58:04;5.43;;;4.95;;
84672;SDS011;74899;42.256;23.284;2024-03-02T09:00:31;9.48;;;6.85;;
84672;SDS011;74899;42.256;23.284;2024-03-02T09:02:57;5.38;;;4.88;;
84672;SDS011;74899;42.256;23.284;2024-03-02T09:05:23;9.05;;;6.07;;
84672;SDS011;74899;42.256;23.284;2024-03-02T09:07:48;5.72;;;4.97;;
84672;SDS011;74899;42.256;23.284;2024-03-02T09:10:18;4.68;;;4.28;;
84672;SDS011;74899;42.256;23.284;2024-03-02T09:12:44;7.70;;;5.88;;
84672;SDS011;74899;42.256;23.284;2024-03-02T09:15:09;5.45;;;5.00;;
84672;SDS011;74899;42.256;23.284;2024-03-02T09:17:35;6.55;;;4.82;;
84672;SDS011;74899;42.256;23.284;2024-03-02T09:20:01;7.60;;;5.32;;
84672;SDS011;74899;42.256;23.284;2024-03-02T09:22:26;13.73;;;8.10;;
84672;SDS011;74899;42.256;23.284;2024-03-02T09:24:52;8.45;;;6.05;;
84672;SDS011;74899;42.256;23.284;2024-03-02T09:27:18;7.20;;;6.07;;
84672;SDS011;74899;42.256;23.284;2024-03-02T09:29:43;7.22;;;5.55;;
84672;SDS011;74899;42.256;23.284;2024-03-02T09:32:12;5.47;;;4.82;;
84672;SDS011;74899;42.256;23.284;2024-03-02T09:34:42;6.35;;;5.75;;
84672;SDS011;74899;42.256;23.284;2024-03-02T09:37:08;12.82;;;6.63;;
84672;SDS011;74899;42.256;23.284;2024-03-02T09:39:34;8.23;;;6.82;;
84672;SDS011;74899;42.256;23.284;2024-03-02T09:41:59;8.70;;;7.20;;
84672;SDS011;74899;42.256;23.284;2024-03-02T09:44:26;17.60;;;10.77;;
84672;SDS011;74899;42.256;23.284;2024-03-02T09:46:55;9.70;;;7.05;;
84672;SDS011;74899;42.256;23.284;2024-03-02T09:49:21;10.57;;;6.95;;
84672;SDS011;74899;42.256;23.284;2024-03-02T09:51:48;18.08;;;10.52;;
84672;SDS011;74899;42.256;23.284;2024-03-02T09:54:17;22.73;;;14.27;;
84672;SDS011;74899;42.256;23.284;2024-03-02T09:56:44;7.70;;;6.57;;
84672;SDS011;74899;42.256;23.284;2024-03-02T09:59:10;19.63;;;13.25;;
84672;SDS011;74899;42.256;23.284;2024-03-02T10:01:38;6.65;;;5.05;;
84672;SDS011;74899;42.256;23.284;2024-03-02T10:04:05;7.40;;;6.70;;
84672;SDS011;74899;42.256;23.284;2024-03-02T10:06:31;8.75;;;6.25;;
84672;SDS011;74899;42.256;23.284;2024-03-02T10:09:00;8.90;;;8.00;;
84672;SDS011;74899;42.256;23.284;2024-03-02T10:11:32;12.10;;;7.97;;
84672;SDS011;74899;42.256;23.284;2024-03-02T10:14:08;8.48;;;6.65;;
84672;SDS011;74899;42.256;23.284;2024-03-02T10:16:44;12.40;;;8.10;;
84672;SDS011;74899;42.256;23.284;2024-03-02T10:19:17;11.95;;;7.93;;
84672;SDS011;74899;42.256;23.284;2024-03-02T10:21:51;33.00;;;15.27;;
84672;SDS011;74899;42.256;23.284;2024-03-02T10:24:20;16.73;;;10.65;;
84672;SDS011;74899;42.256;23.284;2024-03-02T10:26:47;10.75;;;9.65;;
84672;SDS011;74899;42.256;23.284;2024-03-02T10:29:15;10.20;;;8.73;;
84672;SDS011;74899;42.256;23.284;2024-03-02T10:31:58;7.10;;;5.70;;
84672;SDS011;74899;42.256;23.284;2024-03-02T10:34:29;8.48;;;5.57;;
84672;SDS011;74899;42.256;23.284;2024-03-02T10:36:57;9.18;;;7.03;;
84672;SDS011;74899;42.256;23.284;2024-03-02T10:39:25;19.88;;;11.70;;
84672;SDS011;74899;42.256;23.284;2024-03-02T10:41:51;8.10;;;7.35;;
84672;SDS011;74899;42.256;23.284;2024-03-02T10:44:18;9.93;;;6.88;;
84672;SDS011;74899;42.256;23.284;2024-03-02T10:46:45;12.02;;;9.23;;
84672;SDS011;74899;42.256;23.284;2024-03-02T10:49:12;14.02;;;9.70;;
84672;SDS011;74899;42.256;23.284;2024-03-02T10:51:39;8.43;;;6.80;;
84672;SDS011;74899;42.256;23.284;2024-03-02T10:54:05;6.07;;;5.13;;
84672;SDS011;74899;42.256;23.284;2024-03-02T10:56:32;6.75;;;6.05;;
84672;SDS011;74899;42.256;23.284;2024-03-02T10:59:02;15.65;;;10.27;;
84672;SDS011;74899;42.256;23.284;2024-03-02T11:01:32;6.00;;;5.32;;
84672;SDS011;74899;42.256;23.284;2024-03-02T11:03:58;4.68;;;4.20;;
84672;SDS011;74899;42.256;23.284;2024-03-02T11:06:26;33.15;;;16.58;;
84672;SDS011;74899;42.256;23.284;2024-03-02T11:08:54;38.55;;;20.98;;
84672;SDS011;74899;42.256;23.284;2024-03-02T11:11:28;12.82;;;8.82;;
84672;SDS011;74899;42.256;23.284;2024-03-02T11:14:00;8.27;;;6.50;;
84672;SDS011;74899;42.256;23.284;2024-03-02T11:16:34;23.83;;;12.05;;
84672;SDS011;74899;42.256;23.284;2024-03-02T11:19:05;20.25;;;11.05;;
84672;SDS011;74899;42.256;23.284;2024-03-02T11:21:33;4.80;;;4.05;;
84672;SDS011;74899;42.256;23.284;2024-03-02T11:23:59;20.65;;;11.45;;
84672;SDS011;74899;42.256;23.284;2024-03-02T11:26:27;21.88;;;12.88;;
84672;SDS011;74899;42.256;23.284;2024-03-02T11:28:53;30.90;;;15.38;;
84672;SDS011;74899;42.256;23.284;2024-03-02T11:31:21;29.92;;;13.05;;
84672;SDS011;74899;42.256;23.284;2024-03-02T11:33:48;12.80;;;6.43;;
84672;SDS011;74899;42.256;23.284;2024-03-02T11:36:14;35.53;;;16.23;;
84672;SDS011;74899;42.256;23.284;2024-03-02T11:38:43;11.48;;;7.38;;
84672;SDS011;74899;42.256;23.284;2024-03-02T11:41:11;11.18;;;6.47;;
84672;SDS011;74899;42.256;23.284;2024-03-02T11:43:37;7.03;;;5.60;;
84672;SDS011;74899;42.256;23.284;2024-03-02T11:46:07;17.98;;;8.60;;
84672;SDS011;74899;42.256;23.284;2024-03-02T11:48:35;24.50;;;8.15;;
84672;SDS011;74899;42.256;23.284;2024-03-02T11:51:03;26.92;;;12.88;;
84672;SDS011;74899;42.256;23.284;2024-03-02T11:53:29;3.10;;;2.90;;
84672;SDS011;74899;42.256;23.284;2024-03-02T11:55:57;15.68;;;10.07;;
84672;SDS011;74899;42.256;23.284;2024-03-02T11:58:24;17.80;;;9.98;;
84672;SDS011;74899;42.256;23.284;2024-03-02T12:00:52;25.92;;;12.98;;
84672;SDS011;74899;42.256;23.284;2024-03-02T12:03:23;4.53;;;4.10;;
84672;SDS011;74899;42.256;23.284;2024-03-02T12:05:52;9.70;;;7.13;;
84672;SDS011;74899;42.256;23.284;2024-03-02T12:08:19;3.28;;;3.05;;
84672;SDS011;74899;42.256;23.284;2024-03-02T12:10:56;2.88;;;2.78;;
84672;SDS011;74899;42.256;23.284;2024-03-02T12:13:28;6.13;;;5.53;;
84672;SDS011;74899;42.256;23.284;2024-03-02T12:15:54;3.45;;;3.25;;
84672;SDS011;74899;42.256;23.284;2024-03-02T12:18:21;4.90;;;4.18;;
84672;SDS011;74899;42.256;23.284;2024-03-02T12:20:48;18.00;;;8.30;;
84672;SDS011;74899;42.256;23.284;2024-03-02T12:23:18;5.82;;;4.68;;
84672;SDS011;74899;42.256;23.284;2024-03-02T12:25:44;5.85;;;5.43;;
84672;SDS011;74899;42.256;23.284;2024-03-02T12:28:10;5.40;;;5.00;;
84672;SDS011;74899;42.256;23.284;2024-03-02T12:30:36;3.22;;;3.00;;
84672;SDS011;74899;42.256;23.284;2024-03-02T12:33:02;3.10;;;2.90;;
84672;SDS011;74899;42.256;23.284;2024-03-02T12:35:29;2.97;;;2.78;;
84672;SDS011;74899;42.256;23.284;2024-03-02T12:37:55;3.08;;;2.88;;
84672;SDS011;74899;42.256;23.284;2024-03-02T12:40:23;3.85;;;3.55;;
84672;SDS011;74899;42.256;23.284;2024-03-02T12:42:49;3.90;;;3.65;;
84672;SDS011;74899;42.256;23.284;2024-03-02T12:45:19;3.83;;;3.53;;
84672;SDS011;74899;42.256;23.284;2024-03-02T12:47:49;3.90;;;3.60;;
84672;SDS011;74899;42.256;23.284;2024-03-02T12:50:17;3.85;;;3.08;;
84672;SDS011;74899;42.256;23.284;2024-03-02T12:52:50;19.35;;;10.93;;
84672;SDS011;74899;42.256;23.284;2024-03-02T12:55:18;4.95;;;4.18;;
84672;SDS011;74899;42.256;23.284;2024-03-02T12:57:47;7.10;;;4.38;;
84672;SDS011;74899;42.256;23.284;2024-03-02T13:00:12;3.42;;;3.13;;
84672;SDS011;74899;42.256;23.284;2024-03-02T13:02:41;14.88;;;7.85;;
84672;SDS011;74899;42.256;23.284;2024-03-02T13:05:08;12.30;;;7.32;;
84672;SDS011;74899;42.256;23.284;2024-03-02T13:07:39;4.20;;;3.28;;
84672;SDS011;74899;42.256;23.284;2024-03-02T13:10:06;3.33;;;3.08;;
84672;SDS011;74899;42.256;23.284;2024-03-02T13:12:35;3.33;;;3.03;;
84672;SDS011;74899;42.256;23.284;2024-03-02T13:15:02;3.97;;;3.63;;
84672;SDS011;74899;42.256;23.284;2024-03-02T13:17:31;11.05;;;6.78;;
84672;SDS011;74899;42.256;23.284;2024-03-02T13:19:59;6.55;;;3.20;;
84672;SDS011;74899;42.256;23.284;2024-03-02T13:22:25;5.22;;;4.60;;
84672;SDS011;74899;42.256;23.284;2024-03-02T13:24:52;3.42;;;3.13;;
84672;SDS011;74899;42.256;23.284;2024-03-02T13:27:22;4.18;;;3.88;;
84672;SDS011;74899;42.256;23.284;2024-03-02T13:29:47;59.50;;;30.50;;
84672;SDS011;74899;42.256;23.284;2024-03-02T13:32:17;70.88;;;37.60;;
84672;SDS011;74899;42.256;23.284;2024-03-02T13:34:49;73.45;;;40.05;;
84672;SDS011;74899;42.256;23.284;2024-03-02T13:37:17;42.22;;;23.38;;
84672;SDS011;74899;42.256;23.284;2024-03-02T13:39:43;6.55;;;5.53;;
84672;SDS011;74899;42.256;23.284;2024-03-02T13:42:10;12.23;;;6.28;;
84672;SDS011;74899;42.256;23.284;2024-03-02T13:44:39;11.10;;;7.10;;
84672;SDS011;74899;42.256;23.284;2024-03-02T13:47:13;6.53;;;5.28;;
84672;SDS011;74899;42.256;23.284;2024-03-02T13:49:40;4.85;;;4.43;;
84672;SDS011;74899;42.256;23.284;2024-03-02T13:52:09;5.03;;;4.68;;
84672;SDS011;74899;42.256;23.284;2024-03-02T13:54:46;5.53;;;4.22;;
84672;SDS011;74899;42.256;23.284;2024-03-02T13:57:12;2.33;;;2.13;;
84672;SDS011;74899;42.256;23.284;2024-03-02T13:59:40;5.28;;;4.80;;
84672;SDS011;74899;42.256;23.284;2024-03-02T14:02:07;13.25;;;8.27;;
84672;SDS011;74899;42.256;23.284;2024-03-02T14:04:34;3.13;;;2.88;;
84672;SDS011;74899;42.256;23.284;2024-03-02T14:07:00;22.27;;;16.17;;
84672;SDS011;74899;42.256;23.284;2024-03-02T14:09:28;1.55;;;1.50;;
84672;SDS011;74899;42.256;23.284;2024-03-02T14:11:56;22.40;;;10.73;;
84672;SDS011;74899;42.256;23.284;2024-03-02T14:14:26;10.13;;;5.85;;
84672;SDS011;74899;42.256;23.284;2024-03-02T14:16:55;3.72;;;3.03;;
84672;SDS011;74899;42.256;23.284;2024-03-02T14:19:21;7.75;;;5.32;;
84672;SDS011;74899;42.256;23.284;2024-03-02T14:21:48;19.52;;;12.35;;
84672;SDS011;74899;42.256;23.284;2024-03-02T14:24:13;6.20;;;4.90;;
84672;SDS011;74899;42.256;23.284;2024-03-02T14:26:40;8.15;;;5.80;;
84672;SDS011;74899;42.256;23.284;2024-03-02T14:29:07;2.67;;;2.47;;
84672;SDS011;74899;42.256;23.284;2024-03-02T14:31:34;5.10;;;4.70;;